createdAt,value
2018-07-08T00:01:30.592Z,6.90
2018-07-08T00:03:59.176Z,6.20
2018-07-08T00:06:27.751Z,6.10
2018-07-08T00:08:56.324Z,6.20
2018-07-08T00:11:28.813Z,5.80
2018-07-08T00:13:57.471Z,6.10
2018-07-08T00:16:26.018Z,6.27
2018-07-08T00:18:54.621Z,7.33
2018-07-08T00:21:23.230Z,6.93
2018-07-08T00:23:57.774Z,6.97
2018-07-08T00:26:26.411Z,6.97
2018-07-08T00:28:55.215Z,7.57
2018-07-08T00:31:23.776Z,7.30
2018-07-08T00:33:52.637Z,7.50
2018-07-08T00:36:21.209Z,7.80
2018-07-08T00:38:49.747Z,7.50
2018-07-08T00:41:18.309Z,7.57
2018-07-08T00:43:46.795Z,7.27
2018-07-08T00:46:15.372Z,7.57
2018-07-08T00:48:43.917Z,7.53
2018-07-08T00:51:12.456Z,7.30
2018-07-08T00:53:40.995Z,7.83
2018-07-08T00:56:09.577Z,7.33
2018-07-08T00:58:38.145Z,6.63
2018-07-08T01:01:06.745Z,6.80
2018-07-08T01:03:35.380Z,7.00
2018-07-08T01:06:04.033Z,6.40
2018-07-08T01:08:32.625Z,6.60
2018-07-08T01:11:02.963Z,6.20
2018-07-08T01:13:31.594Z,6.40
2018-07-08T01:16:00.125Z,6.30
2018-07-08T01:18:28.701Z,6.00
2018-07-08T01:20:57.265Z,6.33
2018-07-08T01:23:25.816Z,8.13
2018-07-08T01:26:06.027Z,7.07
2018-07-08T01:28:34.629Z,6.37
2018-07-08T01:31:03.180Z,6.50
2018-07-08T01:33:31.789Z,6.13
2018-07-08T01:36:00.369Z,7.00
2018-07-08T01:38:28.956Z,6.87
2018-07-08T01:40:57.851Z,6.50
2018-07-08T01:43:26.562Z,6.60
2018-07-08T01:45:55.220Z,6.73
2018-07-08T01:48:23.762Z,6.43
2018-07-08T01:50:52.330Z,6.90
2018-07-08T01:53:21.954Z,6.87
2018-07-08T01:55:50.681Z,6.30
2018-07-08T01:58:19.257Z,5.97
2018-07-08T02:00:47.952Z,6.10
2018-07-08T02:03:16.812Z,6.37
2018-07-08T02:05:45.363Z,6.47
2018-07-08T02:08:14.263Z,6.60
2018-07-08T02:10:42.908Z,6.70
2018-07-08T02:13:11.560Z,6.30
2018-07-08T02:15:41.901Z,7.00
2018-07-08T02:18:10.492Z,6.83
2018-07-08T02:20:40.068Z,7.10
2018-07-08T02:23:08.649Z,7.33
2018-07-08T02:25:37.533Z,7.57
2018-07-08T02:28:08.594Z,8.57
2018-07-08T02:30:37.183Z,8.33
2018-07-08T02:33:05.867Z,8.10
2018-07-08T02:35:35.070Z,8.43
2018-07-08T02:38:03.675Z,8.30
2018-07-08T02:40:32.269Z,8.20
2018-07-08T02:43:00.865Z,8.60
2018-07-08T02:45:29.474Z,8.40
2018-07-08T02:47:58.089Z,8.20
2018-07-08T02:50:26.661Z,8.30
2018-07-08T02:52:55.279Z,8.17
2018-07-08T02:55:23.809Z,8.00
2018-07-08T02:57:52.397Z,7.93
2018-07-08T03:00:21.030Z,8.50
2018-07-08T03:02:49.633Z,9.10
2018-07-08T03:05:18.226Z,8.60
2018-07-08T03:07:46.795Z,8.73
2018-07-08T03:10:16.029Z,8.67
2018-07-08T03:12:44.653Z,8.80
2018-07-08T03:15:13.264Z,8.63
2018-07-08T03:17:41.857Z,8.57
2018-07-08T03:20:10.441Z,9.67
2018-07-08T03:22:38.983Z,8.30
2018-07-08T03:25:07.637Z,8.30
2018-07-08T03:27:36.185Z,8.97
2018-07-08T03:30:04.789Z,8.80
2018-07-08T03:32:33.365Z,8.23
2018-07-08T03:35:01.906Z,7.80
2018-07-08T03:37:30.491Z,8.20
2018-07-08T03:39:59.106Z,8.23
2018-07-08T03:42:27.676Z,9.03
2018-07-08T03:44:57.075Z,8.90
2018-07-08T03:47:25.632Z,8.60
2018-07-08T03:49:54.237Z,8.70
2018-07-08T03:52:24.472Z,9.03
2018-07-08T03:54:53.065Z,8.60
2018-07-08T03:57:21.629Z,8.90
2018-07-08T03:59:50.237Z,8.73
2018-07-08T04:02:18.785Z,8.30
2018-07-08T04:04:47.342Z,9.43
2018-07-08T04:07:15.871Z,9.03
2018-07-08T04:09:44.438Z,8.77
2018-07-08T04:12:13.009Z,8.87
2018-07-08T04:14:42.878Z,8.63
2018-07-08T04:17:11.489Z,8.13
2018-07-08T04:19:40.081Z,8.53
2018-07-08T04:22:08.656Z,8.83
2018-07-08T04:24:37.277Z,8.17
2018-07-08T04:27:06.273Z,9.40
2018-07-08T04:29:34.826Z,7.73
2018-07-08T04:32:03.416Z,8.50
2018-07-08T04:34:31.973Z,8.67
2018-07-08T04:37:00.642Z,8.57
2018-07-08T04:39:30.864Z,9.07
2018-07-08T04:41:59.413Z,8.43
2018-07-08T04:44:27.960Z,9.00
2018-07-08T04:46:56.521Z,8.07
2018-07-08T04:49:25.894Z,7.70
2018-07-08T04:51:54.902Z,7.23
2018-07-08T04:54:23.502Z,8.13
2018-07-08T04:56:52.160Z,7.87
2018-07-08T04:59:21.610Z,7.87
2018-07-08T05:01:50.729Z,7.90
2018-07-08T05:04:19.318Z,8.20
2018-07-08T05:06:48.124Z,7.70
2018-07-08T05:09:17.054Z,7.13
2018-07-08T05:11:45.722Z,7.97
2018-07-08T05:14:14.528Z,7.87
2018-07-08T05:16:43.264Z,7.07
2018-07-08T05:19:13.155Z,7.47
2018-07-08T05:21:41.916Z,7.60
2018-07-08T05:24:10.938Z,8.00
2018-07-08T05:26:42.161Z,7.50
2018-07-08T05:29:12.793Z,6.83
2018-07-08T05:31:41.400Z,6.80
2018-07-08T05:34:09.941Z,6.77
2018-07-08T05:36:38.583Z,6.83
2018-07-08T05:39:08.179Z,6.50
2018-07-08T05:41:37.266Z,6.43
2018-07-08T05:44:05.874Z,7.30
2018-07-08T05:46:34.457Z,6.07
2018-07-08T05:49:03.389Z,6.20
2018-07-08T05:51:32.902Z,5.93
2018-07-08T05:54:01.442Z,5.90
2018-07-08T05:56:30.173Z,6.10
2018-07-08T05:58:58.753Z,5.80
2018-07-08T06:01:27.321Z,5.97
2018-07-08T06:03:55.885Z,5.43
2018-07-08T06:06:24.526Z,5.60
2018-07-08T06:08:53.102Z,5.80
2018-07-08T06:11:21.677Z,5.90
2018-07-08T06:13:50.526Z,5.73
2018-07-08T06:16:19.089Z,6.10
2018-07-08T06:18:47.638Z,5.70
2018-07-08T06:21:16.212Z,5.77
2018-07-08T06:23:45.446Z,5.80
2018-07-08T06:26:14.100Z,5.37
2018-07-08T06:28:42.671Z,5.57
2018-07-08T06:31:12.161Z,5.97
2018-07-08T06:33:40.716Z,5.50
2018-07-08T06:36:10.540Z,5.70
2018-07-08T06:38:39.078Z,5.33
2018-07-08T06:41:07.717Z,5.27
2018-07-08T06:43:36.305Z,5.13
2018-07-08T06:46:04.913Z,6.33
2018-07-08T06:48:43.384Z,4.90
2018-07-08T06:51:11.995Z,5.57
2018-07-08T06:53:40.541Z,5.23
2018-07-08T06:56:09.184Z,5.30
2018-07-08T06:58:37.848Z,5.90
2018-07-08T07:01:06.697Z,5.53
2018-07-08T07:03:35.234Z,4.83
2018-07-08T07:06:05.096Z,4.77
2018-07-08T07:08:32.561Z,5.40
2018-07-08T07:11:01.103Z,4.67
2018-07-08T07:13:29.673Z,5.40
2018-07-08T07:15:58.316Z,3.63
2018-07-08T07:18:26.885Z,5.13
2018-07-08T07:20:55.473Z,6.00
2018-07-08T07:23:24.062Z,3.80
2018-07-08T07:25:53.049Z,5.83
2018-07-08T07:28:25.477Z,3.97
2018-07-08T07:30:54.037Z,4.37
2018-07-08T07:33:22.610Z,3.97
2018-07-08T07:35:51.181Z,3.53
2018-07-08T07:38:19.838Z,3.43
2018-07-08T07:40:49.273Z,3.53
2018-07-08T07:43:17.914Z,3.50
2018-07-08T07:45:46.496Z,4.20
2018-07-08T07:48:15.082Z,3.80
2018-07-08T07:50:43.618Z,4.13
2018-07-08T07:53:12.550Z,5.13
2018-07-08T07:55:41.117Z,4.57
2018-07-08T07:58:09.688Z,4.10
2018-07-08T08:00:38.253Z,2.90
2018-07-08T08:03:08.941Z,6.83
2018-07-08T08:05:37.537Z,6.47
2018-07-08T08:08:06.573Z,6.10
2018-07-08T08:10:37.460Z,7.10
2018-07-08T08:13:07.035Z,5.33
2018-07-08T08:15:36.670Z,3.75
2018-07-08T08:18:05.488Z,3.42
2018-07-08T08:20:34.013Z,5.35
2018-07-08T08:23:02.550Z,4.40
2018-07-08T08:25:31.053Z,3.33
2018-07-08T08:27:59.614Z,4.12
2018-07-08T08:30:28.155Z,4.78
2018-07-08T08:33:02.928Z,2.98
2018-07-08T08:35:31.540Z,3.08
2018-07-08T08:38:00.594Z,2.72
2018-07-08T08:40:30.494Z,4.33
2018-07-08T08:42:59.127Z,3.62
2018-07-08T08:45:29.171Z,5.67
2018-07-08T08:47:57.954Z,3.60
2018-07-08T08:50:30.293Z,3.75
2018-07-08T08:52:58.942Z,4.45
2018-07-08T08:55:27.475Z,3.80
2018-07-08T08:57:56.058Z,3.02
2018-07-08T09:00:24.538Z,3.77
2018-07-08T09:02:53.692Z,3.95
2018-07-08T09:05:22.225Z,2.87
2018-07-08T09:07:50.734Z,3.10
2018-07-08T09:10:19.338Z,2.95
2018-07-08T09:12:47.930Z,3.37
2018-07-08T09:15:16.477Z,3.17
2018-07-08T09:17:44.956Z,3.58
2018-07-08T09:20:13.482Z,4.08
2018-07-08T09:22:41.997Z,3.20
2018-07-08T09:25:10.514Z,5.20
2018-07-08T09:27:39.001Z,2.47
2018-07-08T09:30:07.564Z,3.05
2018-07-08T09:32:36.078Z,3.00
2018-07-08T09:35:04.657Z,4.20
2018-07-08T09:37:33.150Z,3.27
2018-07-08T09:40:01.735Z,2.85
2018-07-08T09:42:30.234Z,3.37
2018-07-08T09:44:58.768Z,3.35
2018-07-08T09:47:27.316Z,2.80
2018-07-08T09:49:55.833Z,2.83
2018-07-08T09:52:24.609Z,2.58
2018-07-08T09:54:53.147Z,3.22
2018-07-08T09:57:21.643Z,4.10
2018-07-08T09:59:50.209Z,3.08
2018-07-08T10:02:18.909Z,2.70
2018-07-08T10:04:47.470Z,3.25
2018-07-08T10:07:15.987Z,3.10
2018-07-08T10:09:44.498Z,2.20
2018-07-08T10:12:13.033Z,2.12
2018-07-08T10:14:41.566Z,4.42
2018-07-08T10:17:10.083Z,2.98
2018-07-08T10:19:38.753Z,2.55
2018-07-08T10:22:07.167Z,2.02
2018-07-08T10:24:35.689Z,3.40
2018-07-08T10:27:14.344Z,2.30
2018-07-08T10:29:42.921Z,3.10
2018-07-08T10:32:11.417Z,2.02
2018-07-08T10:34:40.958Z,4.53
2018-07-08T10:37:09.462Z,2.25
2018-07-08T10:39:38.037Z,2.00
2018-07-08T10:42:07.266Z,1.98
2018-07-08T10:44:35.758Z,1.82
2018-07-08T10:47:04.271Z,2.02
2018-07-08T10:49:32.793Z,2.27
2018-07-08T10:52:01.316Z,2.30
2018-07-08T10:54:31.455Z,2.25
2018-07-08T10:57:00.049Z,2.33
2018-07-08T10:59:28.592Z,3.17
2018-07-08T11:01:59.390Z,2.20
2018-07-08T11:04:28.062Z,3.25
2018-07-08T11:06:56.875Z,1.90
2018-07-08T11:09:25.415Z,3.77
2018-07-08T11:11:53.969Z,2.20
2018-07-08T11:14:27.136Z,4.22
2018-07-08T11:16:55.676Z,2.42
2018-07-08T11:19:24.158Z,1.80
2018-07-08T11:21:52.767Z,2.45
2018-07-08T11:24:23.186Z,2.58
2018-07-08T11:26:51.688Z,2.30
2018-07-08T11:29:20.199Z,2.20
2018-07-08T11:31:48.722Z,2.30
2018-07-08T11:34:17.229Z,1.60
2018-07-08T11:36:46.027Z,2.42
2018-07-08T11:39:14.545Z,2.25
2018-07-08T11:41:43.105Z,2.15
2018-07-08T11:44:11.599Z,2.80
2018-07-08T11:46:40.136Z,2.12
2018-07-08T11:49:08.994Z,1.85
2018-07-08T11:51:37.500Z,1.70
2018-07-08T11:54:06.357Z,1.70
2018-07-08T11:56:34.870Z,1.70
2018-07-08T11:59:03.342Z,2.62
2018-07-08T12:01:31.862Z,2.02
2018-07-08T12:04:00.340Z,2.35
2018-07-08T12:06:28.930Z,1.60
2018-07-08T12:08:57.357Z,1.82
2018-07-08T12:11:25.875Z,3.98
2018-07-08T12:13:55.325Z,2.47
2018-07-08T12:16:23.859Z,2.00
2018-07-08T12:18:52.348Z,2.12
2018-07-08T12:21:20.924Z,4.20
2018-07-08T12:23:49.981Z,2.02
2018-07-08T12:26:18.667Z,1.82
2018-07-08T12:28:47.192Z,2.22
2018-07-08T12:31:15.753Z,1.75
2018-07-08T12:33:44.437Z,2.80
2018-07-08T12:36:12.918Z,1.85
2018-07-08T12:38:41.480Z,1.90
2018-07-08T12:41:09.954Z,1.95
2018-07-08T12:43:38.487Z,2.08
2018-07-08T12:46:06.981Z,2.75
2018-07-08T12:48:35.660Z,1.92
2018-07-08T12:51:04.229Z,2.00
2018-07-08T12:53:32.782Z,3.00
2018-07-08T12:56:01.393Z,1.85
2018-07-08T12:58:29.975Z,2.30
2018-07-08T13:01:00.808Z,1.90
2018-07-08T13:03:29.449Z,1.90
2018-07-08T13:05:57.924Z,2.42
2018-07-08T13:08:26.563Z,2.02
2018-07-08T13:10:55.081Z,2.27
2018-07-08T13:13:23.572Z,3.98
2018-07-08T13:15:52.050Z,3.25
2018-07-08T13:18:20.556Z,2.17
2018-07-08T13:20:49.023Z,2.22
2018-07-08T13:23:17.521Z,2.30
2018-07-08T13:25:46.013Z,2.17
2018-07-08T13:28:14.599Z,2.10
2018-07-08T13:30:43.093Z,2.02
2018-07-08T13:33:13.741Z,2.00
2018-07-08T13:35:42.242Z,2.10
2018-07-08T13:38:11.017Z,2.75
2018-07-08T13:40:40.090Z,2.05
2018-07-08T13:43:08.624Z,2.27
2018-07-08T13:45:37.191Z,2.52
2018-07-08T13:48:06.008Z,2.08
2018-07-08T13:50:34.498Z,2.15
2018-07-08T13:53:03.502Z,3.67
2018-07-08T13:55:31.968Z,2.40
2018-07-08T13:58:00.707Z,1.90
2018-07-08T14:00:29.169Z,3.20
2018-07-08T14:02:57.657Z,3.17
2018-07-08T14:05:26.592Z,2.22
2018-07-08T14:07:55.361Z,2.40
2018-07-08T14:10:23.854Z,1.80
2018-07-08T14:12:52.352Z,2.55
2018-07-08T14:15:20.836Z,2.05
2018-07-08T14:17:49.288Z,2.95
2018-07-08T14:20:17.852Z,2.47
2018-07-08T14:22:46.197Z,1.90
2018-07-08T14:25:14.683Z,2.37
2018-07-08T14:27:43.176Z,2.95
2018-07-08T14:30:11.628Z,2.98
2018-07-08T14:32:40.062Z,2.20
2018-07-08T14:35:08.633Z,2.83
2018-07-08T14:37:37.112Z,2.60
2018-07-08T14:40:06.505Z,2.22
2018-07-08T14:42:34.953Z,2.20
2018-07-08T14:45:03.494Z,2.02
2018-07-08T14:47:31.933Z,2.00
2018-07-08T14:50:00.482Z,2.40
2018-07-08T14:52:28.961Z,2.10
2018-07-08T14:54:57.476Z,2.37
2018-07-08T14:57:25.923Z,2.33
2018-07-08T14:59:54.417Z,3.45
2018-07-08T15:02:22.844Z,2.55
2018-07-08T15:04:51.345Z,2.50
2018-07-08T15:07:19.858Z,2.42
2018-07-08T15:09:49.249Z,2.30
2018-07-08T15:12:17.700Z,2.40
2018-07-08T15:14:46.188Z,2.67
2018-07-08T15:17:14.695Z,2.60
2018-07-08T15:19:43.222Z,2.35
2018-07-08T15:22:11.702Z,2.30
2018-07-08T15:24:40.327Z,4.67
2018-07-08T15:27:10.532Z,2.52
2018-07-08T15:29:39.177Z,2.45
2018-07-08T15:32:07.640Z,2.37
2018-07-08T15:34:36.298Z,4.20
2018-07-08T15:37:04.748Z,2.27
2018-07-08T15:39:33.327Z,2.25
2018-07-08T15:42:01.878Z,2.33
2018-07-08T15:44:30.385Z,2.58
2018-07-08T15:46:58.952Z,2.45
2018-07-08T15:49:27.475Z,2.67
2018-07-08T15:51:55.903Z,2.20
2018-07-08T15:54:24.425Z,3.55
2018-07-08T15:56:53.045Z,4.42
2018-07-08T15:59:22.932Z,2.80
2018-07-08T16:01:51.535Z,2.60
2018-07-08T16:04:20.082Z,2.75
2018-07-08T16:06:48.598Z,2.87
2018-07-08T16:09:18.122Z,2.70
2018-07-08T16:11:46.746Z,2.47
2018-07-08T16:14:15.262Z,2.45
2018-07-08T16:16:43.813Z,3.17
2018-07-08T16:19:14.561Z,3.92
2018-07-08T16:21:43.076Z,2.90
2018-07-08T16:24:11.574Z,2.60
2018-07-08T16:26:40.078Z,3.60
2018-07-08T16:29:08.559Z,3.02
2018-07-08T16:31:37.087Z,3.92
2018-07-08T16:34:05.608Z,3.25
2018-07-08T16:36:34.093Z,3.00
2018-07-08T16:39:02.613Z,3.12
2018-07-08T16:41:32.150Z,3.00
2018-07-08T16:44:03.148Z,2.90
2018-07-08T16:46:35.369Z,2.90
2018-07-08T16:49:03.900Z,2.90
2018-07-08T16:51:32.393Z,2.90
2018-07-08T16:54:00.900Z,2.90
2018-07-08T16:56:29.395Z,3.10
2018-07-08T16:58:57.966Z,3.37
2018-07-08T17:01:26.477Z,2.93
2018-07-08T17:03:54.949Z,3.07
2018-07-08T17:06:23.490Z,3.90
2018-07-08T17:08:52.671Z,3.73
2018-07-08T17:11:21.188Z,3.23
2018-07-08T17:13:49.694Z,2.83
2018-07-08T17:16:18.259Z,5.00
2018-07-08T17:18:46.767Z,3.93
2018-07-08T17:21:15.273Z,3.23
2018-07-08T17:23:43.740Z,3.30
2018-07-08T17:26:12.257Z,3.30
2018-07-08T17:28:40.778Z,2.97
2018-07-08T17:31:09.347Z,5.93
2018-07-08T17:33:38.753Z,3.10
2018-07-08T17:36:07.269Z,2.80
2018-07-08T17:38:35.771Z,2.80
2018-07-08T17:41:04.461Z,2.90
2018-07-08T17:43:33.009Z,3.53
2018-07-08T17:46:01.859Z,3.00
2018-07-08T17:48:30.450Z,3.37
2018-07-08T17:50:59.056Z,2.90
2018-07-08T17:53:27.599Z,3.30
2018-07-08T17:55:56.071Z,3.10
2018-07-08T17:58:24.591Z,2.57
2018-07-08T18:00:53.117Z,3.00
2018-07-08T18:03:21.685Z,3.20
2018-07-08T18:05:51.117Z,3.10
2018-07-08T18:08:19.658Z,2.97
2018-07-08T18:10:48.157Z,3.50
2018-07-08T18:13:17.121Z,3.20
2018-07-08T18:15:45.630Z,3.37
2018-07-08T18:18:14.185Z,3.20
2018-07-08T18:20:42.685Z,3.33
2018-07-08T18:23:11.235Z,3.43
2018-07-08T18:25:39.761Z,4.10
2018-07-08T18:28:08.258Z,3.00
2018-07-08T18:30:37.509Z,3.23
2018-07-08T18:33:06.654Z,2.80
2018-07-08T18:35:35.181Z,3.30
2018-07-08T18:38:03.781Z,2.80
2018-07-08T18:40:32.629Z,3.00
2018-07-08T18:43:01.569Z,3.50
2018-07-08T18:45:30.119Z,3.43
2018-07-08T18:47:58.625Z,3.70
2018-07-08T18:50:27.110Z,3.23
2018-07-08T18:52:55.636Z,3.10
2018-07-08T18:55:24.159Z,3.73
2018-07-08T18:57:52.718Z,4.13
2018-07-08T19:00:21.181Z,3.50
2018-07-08T19:02:49.680Z,2.87
2018-07-08T19:05:18.156Z,2.90
2018-07-08T19:07:46.680Z,3.07
2018-07-08T19:10:15.125Z,3.17
2018-07-08T19:12:43.650Z,3.10
2018-07-08T19:15:12.133Z,3.37
2018-07-08T19:17:40.622Z,3.30
2018-07-08T19:20:09.093Z,4.33
2018-07-08T19:22:37.641Z,3.27
2018-07-08T19:25:06.135Z,2.90
2018-07-08T19:27:34.568Z,3.23
2018-07-08T19:30:03.344Z,3.40
2018-07-08T19:32:32.269Z,4.93
2018-07-08T19:35:01.181Z,3.40
2018-07-08T19:37:30.264Z,3.87
2018-07-08T19:39:59.773Z,3.60
2018-07-08T19:42:28.257Z,3.57
2018-07-08T19:44:57.461Z,4.50
2018-07-08T19:47:25.957Z,3.37
2018-07-08T19:49:54.672Z,3.20
2018-07-08T19:52:23.225Z,3.40
2018-07-08T19:54:52.034Z,3.87
2018-07-08T19:57:20.639Z,4.50
2018-07-08T19:59:49.590Z,4.90
2018-07-08T20:02:18.077Z,3.20
2018-07-08T20:04:47.354Z,5.40
2018-07-08T20:07:16.218Z,4.73
2018-07-08T20:09:44.790Z,4.20
2018-07-08T20:12:13.729Z,4.03
2018-07-08T20:14:42.341Z,3.60
2018-07-08T20:17:10.915Z,4.13
2018-07-08T20:19:39.497Z,4.00
2018-07-08T20:22:08.326Z,4.93
2018-07-08T20:24:36.878Z,5.90
2018-07-08T20:27:05.786Z,5.00
2018-07-08T20:29:34.614Z,4.50
2018-07-08T20:32:03.172Z,4.13
2018-07-08T20:34:31.828Z,5.17
2018-07-08T20:37:00.433Z,4.43
2018-07-08T20:39:28.997Z,4.63
2018-07-08T20:41:57.574Z,5.33
2018-07-08T20:44:26.421Z,5.37
2018-07-08T20:46:55.097Z,4.43
2018-07-08T20:49:24.006Z,4.30
2018-07-08T20:51:52.645Z,4.60
2018-07-08T20:54:21.240Z,6.00
2018-07-08T20:56:50.120Z,4.57
2018-07-08T20:59:19.248Z,4.40
2018-07-08T21:01:47.733Z,4.30
2018-07-08T21:04:16.268Z,4.70
2018-07-08T21:06:45.213Z,4.40
2018-07-08T21:09:15.186Z,6.83
2018-07-08T21:11:43.743Z,5.60
2018-07-08T21:14:12.278Z,5.80
2018-07-08T21:16:40.857Z,4.43
2018-07-08T21:19:09.358Z,5.00
2018-07-08T21:21:38.065Z,6.03
2018-07-08T21:24:06.655Z,4.67
2018-07-08T21:26:35.403Z,6.70
2018-07-08T21:29:04.058Z,6.33
2018-07-08T21:31:32.625Z,5.03
2018-07-08T21:34:01.454Z,4.93
2018-07-08T21:36:30.046Z,4.50
2018-07-08T21:38:58.562Z,5.40
2018-07-08T21:41:27.146Z,4.87
2018-07-08T21:43:55.623Z,6.53
2018-07-08T21:46:24.697Z,6.07
2018-07-08T21:48:53.203Z,5.43
2018-07-08T21:51:21.786Z,4.67
2018-07-08T21:53:50.350Z,5.70
2018-07-08T21:56:18.938Z,5.30
2018-07-08T21:58:47.402Z,4.77
2018-07-08T22:01:17.323Z,5.20
2018-07-08T22:03:46.483Z,5.07
2018-07-08T22:06:15.804Z,5.27
2018-07-08T22:08:44.389Z,5.73
2018-07-08T22:11:12.904Z,4.93
2018-07-08T22:13:41.833Z,5.33
2018-07-08T22:16:10.386Z,6.63
2018-07-08T22:18:39.205Z,5.27
2018-07-08T22:21:08.745Z,6.03
2018-07-08T22:23:37.350Z,5.20
2018-07-08T22:26:06.014Z,5.07
2018-07-08T22:28:34.544Z,5.83
2018-07-08T22:31:03.625Z,5.30
2018-07-08T22:33:32.145Z,5.73
2018-07-08T22:36:00.674Z,6.27
2018-07-08T22:38:29.614Z,5.57
2018-07-08T22:40:58.201Z,6.03
2018-07-08T22:43:26.696Z,6.13
2018-07-08T22:45:55.198Z,6.17
2018-07-08T22:48:23.731Z,5.87
2018-07-08T22:50:52.217Z,5.77
2018-07-08T22:53:20.781Z,5.70
2018-07-08T22:55:49.331Z,5.50
2018-07-08T22:58:17.833Z,6.37
2018-07-08T23:00:57.674Z,5.90
2018-07-08T23:03:48.576Z,7.77
2018-07-08T23:06:18.492Z,6.20
2018-07-08T23:08:47.109Z,6.37
2018-07-08T23:11:15.633Z,6.80
2018-07-08T23:13:44.825Z,6.73
2018-07-08T23:16:13.364Z,6.20
2018-07-08T23:18:41.873Z,6.33
2018-07-08T23:21:10.482Z,6.67
2018-07-08T23:23:39.017Z,6.40
2018-07-08T23:26:07.742Z,6.00
2018-07-08T23:28:37.071Z,5.83
2018-07-08T23:31:06.245Z,7.47
2018-07-08T23:33:34.829Z,6.57
2018-07-08T23:36:04.125Z,6.67
2018-07-08T23:38:32.981Z,6.50
2018-07-08T23:41:02.425Z,6.53
2018-07-08T23:43:31.340Z,6.40
2018-07-08T23:46:00.521Z,6.83
2018-07-08T23:48:29.050Z,6.77
2018-07-08T23:50:57.652Z,7.00
2018-07-08T23:53:26.309Z,6.87
2018-07-08T23:55:55.137Z,6.50
2018-07-08T23:58:23.703Z,6.80
